sensor_id;sensor_type;location;lat;lon;timestamp;temperature;humidity
48744;DHT22;34538;48.836;9.174;2023-11-19T00:01:32;8.60;99.90
48744;DHT22;34538;48.836;9.174;2023-11-19T00:04:00;8.60;99.90
48744;DHT22;34538;48.836;9.174;2023-11-19T00:06:30;8.60;99.90
48744;DHT22;34538;48.836;9.174;2023-11-19T00:08:56;8.60;99.90
48744;DHT22;34538;48.836;9.174;2023-11-19T00:11:23;8.70;99.90
48744;DHT22;34538;48.836;9.174;2023-11-19T00:13:51;8.70;99.90
48744;DHT22;34538;48.836;9.174;2023-11-19T00:16:17;8.70;99.90
48744;DHT22;34538;48.836;9.174;2023-11-19T00:18:44;8.80;99.90
48744;DHT22;34538;48.836;9.174;2023-11-19T00:21:12;8.70;99.90
48744;DHT22;34538;48.836;9.174;2023-11-19T00:23:39;8.80;99.90
48744;DHT22;34538;48.836;9.174;2023-11-19T00:26:06;8.80;99.90
48744;DHT22;34538;48.836;9.174;2023-11-19T00:28:32;8.80;99.90
48744;DHT22;34538;48.836;9.174;2023-11-19T00:31:00;8.80;99.90
48744;DHT22;34538;48.836;9.174;2023-11-19T00:33:28;8.80;99.90
48744;DHT22;34538;48.836;9.174;2023-11-19T00:35:55;8.80;99.90
48744;DHT22;34538;48.836;9.174;2023-11-19T00:38:24;8.80;99.90
48744;DHT22;34538;48.836;9.174;2023-11-19T00:40:50;8.90;99.90
48744;DHT22;34538;48.836;9.174;2023-11-19T00:43:17;8.90;99.90
48744;DHT22;34538;48.836;9.174;2023-11-19T00:45:47;8.90;99.90
48744;DHT22;34538;48.836;9.174;2023-11-19T00:48:15;9.00;99.90
48744;DHT22;34538;48.836;9.174;2023-11-19T00:50:42;9.00;99.90
48744;DHT22;34538;48.836;9.174;2023-11-19T00:53:10;9.10;99.90
48744;DHT22;34538;48.836;9.174;2023-11-19T00:55:38;9.10;99.90
48744;DHT22;34538;48.836;9.174;2023-11-19T00:58:05;9.20;99.90
48744;DHT22;34538;48.836;9.174;2023-11-19T01:00:32;9.20;99.90
48744;DHT22;34538;48.836;9.174;2023-11-19T01:03:01;9.20;99.90
48744;DHT22;34538;48.836;9.174;2023-11-19T01:05:28;9.20;99.90
48744;DHT22;34538;48.836;9.174;2023-11-19T01:07:55;9.30;99.90
48744;DHT22;34538;48.836;9.174;2023-11-19T01:10:22;9.30;99.90
48744;DHT22;34538;48.836;9.174;2023-11-19T01:12:50;9.40;99.90
48744;DHT22;34538;48.836;9.174;2023-11-19T01:15:17;9.40;99.90
48744;DHT22;34538;48.836;9.174;2023-11-19T01:17:45;9.40;99.90
48744;DHT22;34538;48.836;9.174;2023-11-19T01:20:12;9.50;99.90
48744;DHT22;34538;48.836;9.174;2023-11-19T01:22:40;9.50;99.90
48744;DHT22;34538;48.836;9.174;2023-11-19T01:25:07;9.50;99.90
48744;DHT22;34538;48.836;9.174;2023-11-19T01:27:33;9.50;99.90
48744;DHT22;34538;48.836;9.174;2023-11-19T01:30:02;9.50;99.90
48744;DHT22;34538;48.836;9.174;2023-11-19T01:32:30;9.50;99.90
48744;DHT22;34538;48.836;9.174;2023-11-19T01:34:57;9.50;99.90
48744;DHT22;34538;48.836;9.174;2023-11-19T01:37:23;9.60;99.90
48744;DHT22;34538;48.836;9.174;2023-11-19T01:39:50;9.60;99.90
48744;DHT22;34538;48.836;9.174;2023-11-19T01:42:17;9.60;99.90
48744;DHT22;34538;48.836;9.174;2023-11-19T01:44:53;9.60;99.90
48744;DHT22;34538;48.836;9.174;2023-11-19T01:47:22;9.60;99.90
48744;DHT22;34538;48.836;9.174;2023-11-19T01:49:50;9.60;99.90
48744;DHT22;34538;48.836;9.174;2023-11-19T01:52:17;9.70;99.90
48744;DHT22;34538;48.836;9.174;2023-11-19T01:54:44;9.70;99.90
48744;DHT22;34538;48.836;9.174;2023-11-19T01:57:12;9.70;99.90
48744;DHT22;34538;48.836;9.174;2023-11-19T01:59:39;9.80;99.90
48744;DHT22;34538;48.836;9.174;2023-11-19T02:02:07;9.80;99.90
48744;DHT22;34538;48.836;9.174;2023-11-19T02:04:36;9.90;99.90
48744;DHT22;34538;48.836;9.174;2023-11-19T02:07:04;9.90;99.90
48744;DHT22;34538;48.836;9.174;2023-11-19T02:09:30;9.90;99.90
48744;DHT22;34538;48.836;9.174;2023-11-19T02:11:57;9.90;99.90
48744;DHT22;34538;48.836;9.174;2023-11-19T02:14:25;10.00;99.90
48744;DHT22;34538;48.836;9.174;2023-11-19T02:16:52;10.00;99.90
48744;DHT22;34538;48.836;9.174;2023-11-19T02:19:19;10.00;99.90
48744;DHT22;34538;48.836;9.174;2023-11-19T02:21:47;10.00;99.90
48744;DHT22;34538;48.836;9.174;2023-11-19T02:24:14;10.00;99.90
48744;DHT22;34538;48.836;9.174;2023-11-19T02:26:44;10.10;99.90
48744;DHT22;34538;48.836;9.174;2023-11-19T02:29:15;10.10;99.90
48744;DHT22;34538;48.836;9.174;2023-11-19T02:31:42;10.10;99.90
48744;DHT22;34538;48.836;9.174;2023-11-19T02:34:10;10.10;99.90
48744;DHT22;34538;48.836;9.174;2023-11-19T02:36:38;10.10;99.90
48744;DHT22;34538;48.836;9.174;2023-11-19T02:39:07;10.10;99.90
48744;DHT22;34538;48.836;9.174;2023-11-19T02:41:37;10.10;99.90
48744;DHT22;34538;48.836;9.174;2023-11-19T02:44:05;10.20;99.90
48744;DHT22;34538;48.836;9.174;2023-11-19T02:46:33;10.20;99.90
48744;DHT22;34538;48.836;9.174;2023-11-19T02:49:01;10.10;99.90
48744;DHT22;34538;48.836;9.174;2023-11-19T02:51:28;10.20;99.90
48744;DHT22;34538;48.836;9.174;2023-11-19T02:53:55;10.20;99.90
48744;DHT22;34538;48.836;9.174;2023-11-19T02:56:22;10.20;99.90
48744;DHT22;34538;48.836;9.174;2023-11-19T02:58:52;10.20;99.90
48744;DHT22;34538;48.836;9.174;2023-11-19T03:01:22;10.20;99.90
48744;DHT22;34538;48.836;9.174;2023-11-19T03:03:56;10.20;99.90
48744;DHT22;34538;48.836;9.174;2023-11-19T03:06:24;10.10;99.90
48744;DHT22;34538;48.836;9.174;2023-11-19T03:08:51;10.10;99.90
48744;DHT22;34538;48.836;9.174;2023-11-19T03:11:18;10.10;99.90
48744;DHT22;34538;48.836;9.174;2023-11-19T03:13:45;10.00;99.90
48744;DHT22;34538;48.836;9.174;2023-11-19T03:16:12;10.00;99.90
48744;DHT22;34538;48.836;9.174;2023-11-19T03:18:39;10.00;99.90
48744;DHT22;34538;48.836;9.174;2023-11-19T03:21:07;10.10;99.90
48744;DHT22;34538;48.836;9.174;2023-11-19T03:23:34;10.00;99.90
48744;DHT22;34538;48.836;9.174;2023-11-19T03:26:01;10.00;99.90
48744;DHT22;34538;48.836;9.174;2023-11-19T03:28:31;10.00;99.90
48744;DHT22;34538;48.836;9.174;2023-11-19T03:30:58;10.00;99.90
48744;DHT22;34538;48.836;9.174;2023-11-19T03:33:25;10.00;99.90
48744;DHT22;34538;48.836;9.174;2023-11-19T03:35:53;10.00;99.90
48744;DHT22;34538;48.836;9.174;2023-11-19T03:38:23;10.00;99.90
48744;DHT22;34538;48.836;9.174;2023-11-19T03:40:51;9.90;99.90
48744;DHT22;34538;48.836;9.174;2023-11-19T03:43:18;9.90;99.90
48744;DHT22;34538;48.836;9.174;2023-11-19T03:45:45;9.90;99.90
48744;DHT22;34538;48.836;9.174;2023-11-19T03:48:13;9.90;99.90
48744;DHT22;34538;48.836;9.174;2023-11-19T03:50:42;9.80;99.90
48744;DHT22;34538;48.836;9.174;2023-11-19T03:53:09;9.80;99.90
48744;DHT22;34538;48.836;9.174;2023-11-19T03:55:37;9.80;99.90
48744;DHT22;34538;48.836;9.174;2023-11-19T03:58:04;9.80;99.90
48744;DHT22;34538;48.836;9.174;2023-11-19T04:00:31;9.80;99.90
48744;DHT22;34538;48.836;9.174;2023-11-19T04:02:58;9.90;99.90
48744;DHT22;34538;48.836;9.174;2023-11-19T04:05:25;9.80;99.90
48744;DHT22;34538;48.836;9.174;2023-11-19T04:07:52;9.80;99.90
48744;DHT22;34538;48.836;9.174;2023-11-19T04:10:18;9.80;99.90
48744;DHT22;34538;48.836;9.174;2023-11-19T04:12:47;9.80;99.90
48744;DHT22;34538;48.836;9.174;2023-11-19T04:15:14;9.80;99.90
48744;DHT22;34538;48.836;9.174;2023-11-19T04:17:41;9.80;99.90
48744;DHT22;34538;48.836;9.174;2023-11-19T04:20:08;9.80;99.90
48744;DHT22;34538;48.836;9.174;2023-11-19T04:22:37;9.80;99.90
48744;DHT22;34538;48.836;9.174;2023-11-19T04:25:05;9.80;99.90
48744;DHT22;34538;48.836;9.174;2023-11-19T04:27:31;9.90;99.90
48744;DHT22;34538;48.836;9.174;2023-11-19T04:30:01;9.90;99.90
48744;DHT22;34538;48.836;9.174;2023-11-19T04:32:29;10.00;99.90
48744;DHT22;34538;48.836;9.174;2023-11-19T04:34:56;10.00;99.90
48744;DHT22;34538;48.836;9.174;2023-11-19T04:37:23;9.90;99.90
48744;DHT22;34538;48.836;9.174;2023-11-19T04:39:50;10.00;99.90
48744;DHT22;34538;48.836;9.174;2023-11-19T04:42:17;10.00;99.90
48744;DHT22;34538;48.836;9.174;2023-11-19T04:44:44;10.00;99.90
48744;DHT22;34538;48.836;9.174;2023-11-19T04:47:12;10.00;99.90
48744;DHT22;34538;48.836;9.174;2023-11-19T04:49:40;10.10;99.90
48744;DHT22;34538;48.836;9.174;2023-11-19T04:52:08;10.10;99.90
48744;DHT22;34538;48.836;9.174;2023-11-19T04:54:35;10.10;99.90
48744;DHT22;34538;48.836;9.174;2023-11-19T04:57:02;10.20;99.90
48744;DHT22;34538;48.836;9.174;2023-11-19T04:59:29;10.20;99.90
48744;DHT22;34538;48.836;9.174;2023-11-19T05:01:56;10.20;99.90
48744;DHT22;34538;48.836;9.174;2023-11-19T05:04:24;10.20;99.90
48744;DHT22;34538;48.836;9.174;2023-11-19T05:06:53;10.20;99.90
48744;DHT22;34538;48.836;9.174;2023-11-19T05:09:20;10.30;99.90
48744;DHT22;34538;48.836;9.174;2023-11-19T05:11:47;10.30;99.90
48744;DHT22;34538;48.836;9.174;2023-11-19T05:14:14;10.40;99.90
48744;DHT22;34538;48.836;9.174;2023-11-19T05:16:42;10.50;99.90
48744;DHT22;34538;48.836;9.174;2023-11-19T05:19:09;10.60;99.90
48744;DHT22;34538;48.836;9.174;2023-11-19T05:21:37;10.60;99.90
48744;DHT22;34538;48.836;9.174;2023-11-19T05:24:04;10.70;99.90
48744;DHT22;34538;48.836;9.174;2023-11-19T05:26:31;10.70;99.90
48744;DHT22;34538;48.836;9.174;2023-11-19T05:28:58;10.80;99.90
48744;DHT22;34538;48.836;9.174;2023-11-19T05:31:25;10.80;99.90
48744;DHT22;34538;48.836;9.174;2023-11-19T05:33:52;10.90;99.90
48744;DHT22;34538;48.836;9.174;2023-11-19T05:36:19;10.90;99.90
48744;DHT22;34538;48.836;9.174;2023-11-19T05:38:47;11.00;99.90
48744;DHT22;34538;48.836;9.174;2023-11-19T05:41:14;11.00;99.90
48744;DHT22;34538;48.836;9.174;2023-11-19T05:43:40;11.00;99.90
48744;DHT22;34538;48.836;9.174;2023-11-19T05:46:07;11.10;99.90
48744;DHT22;34538;48.836;9.174;2023-11-19T05:48:34;11.10;99.90
48744;DHT22;34538;48.836;9.174;2023-11-19T05:51:01;11.10;99.90
48744;DHT22;34538;48.836;9.174;2023-11-19T05:53:28;11.10;99.90
48744;DHT22;34538;48.836;9.174;2023-11-19T05:55:56;11.10;99.90
48744;DHT22;34538;48.836;9.174;2023-11-19T05:58:23;11.10;99.90
48744;DHT22;34538;48.836;9.174;2023-11-19T06:00:51;11.10;99.90
48744;DHT22;34538;48.836;9.174;2023-11-19T06:03:18;11.20;99.90
48744;DHT22;34538;48.836;9.174;2023-11-19T06:05:47;11.20;99.90
48744;DHT22;34538;48.836;9.174;2023-11-19T06:08:14;11.10;99.90
48744;DHT22;34538;48.836;9.174;2023-11-19T06:10:41;11.10;99.90
48744;DHT22;34538;48.836;9.174;2023-11-19T06:13:10;11.10;99.90
48744;DHT22;34538;48.836;9.174;2023-11-19T06:15:37;11.10;99.90
48744;DHT22;34538;48.836;9.174;2023-11-19T06:18:04;11.10;99.90
48744;DHT22;34538;48.836;9.174;2023-11-19T06:20:32;11.10;99.90
48744;DHT22;34538;48.836;9.174;2023-11-19T06:22:59;11.10;99.90
48744;DHT22;34538;48.836;9.174;2023-11-19T06:25:26;11.10;99.90
48744;DHT22;34538;48.836;9.174;2023-11-19T06:27:53;11.10;99.90
48744;DHT22;34538;48.836;9.174;2023-11-19T06:30:21;11.20;99.90
48744;DHT22;34538;48.836;9.174;2023-11-19T06:32:48;11.20;99.90
48744;DHT22;34538;48.836;9.174;2023-11-19T06:35:15;11.20;99.90
48744;DHT22;34538;48.836;9.174;2023-11-19T06:37:41;11.30;99.90
48744;DHT22;34538;48.836;9.174;2023-11-19T06:40:09;11.30;99.90
48744;DHT22;34538;48.836;9.174;2023-11-19T06:42:37;11.30;99.90
48744;DHT22;34538;48.836;9.174;2023-11-19T06:45:04;11.40;99.90
48744;DHT22;34538;48.836;9.174;2023-11-19T06:47:33;11.30;99.90
48744;DHT22;34538;48.836;9.174;2023-11-19T06:50:00;11.30;99.90
48744;DHT22;34538;48.836;9.174;2023-11-19T06:52:26;11.40;99.90
48744;DHT22;34538;48.836;9.174;2023-11-19T06:54:53;11.30;99.90
48744;DHT22;34538;48.836;9.174;2023-11-19T06:57:20;11.40;99.90
48744;DHT22;34538;48.836;9.174;2023-11-19T06:59:49;11.40;99.90
48744;DHT22;34538;48.836;9.174;2023-11-19T07:02:15;11.40;99.90
48744;DHT22;34538;48.836;9.174;2023-11-19T07:04:43;11.50;99.90
48744;DHT22;34538;48.836;9.174;2023-11-19T07:07:10;11.50;99.90
48744;DHT22;34538;48.836;9.174;2023-11-19T07:09:37;11.50;99.90
48744;DHT22;34538;48.836;9.174;2023-11-19T07:12:04;11.50;99.90
48744;DHT22;34538;48.836;9.174;2023-11-19T07:14:31;11.50;99.90
48744;DHT22;34538;48.836;9.174;2023-11-19T07:16:58;11.40;99.90
48744;DHT22;34538;48.836;9.174;2023-11-19T07:19:25;11.50;99.90
48744;DHT22;34538;48.836;9.174;2023-11-19T07:21:53;11.50;99.90
48744;DHT22;34538;48.836;9.174;2023-11-19T07:24:20;11.50;99.90
48744;DHT22;34538;48.836;9.174;2023-11-19T07:26:47;11.50;99.90
48744;DHT22;34538;48.836;9.174;2023-11-19T07:29:14;11.50;99.90
48744;DHT22;34538;48.836;9.174;2023-11-19T07:31:41;11.50;99.90
48744;DHT22;34538;48.836;9.174;2023-11-19T07:34:09;11.50;99.90
48744;DHT22;34538;48.836;9.174;2023-11-19T07:36:36;11.50;99.90
48744;DHT22;34538;48.836;9.174;2023-11-19T07:39:04;11.60;99.90
48744;DHT22;34538;48.836;9.174;2023-11-19T07:41:31;11.50;99.90
48744;DHT22;34538;48.836;9.174;2023-11-19T07:43:58;11.60;99.90
48744;DHT22;34538;48.836;9.174;2023-11-19T07:46:25;11.60;99.90
48744;DHT22;34538;48.836;9.174;2023-11-19T07:48:52;11.60;99.90
48744;DHT22;34538;48.836;9.174;2023-11-19T07:51:19;11.60;99.90
48744;DHT22;34538;48.836;9.174;2023-11-19T07:53:45;11.60;99.90
48744;DHT22;34538;48.836;9.174;2023-11-19T07:56:14;11.60;99.90
48744;DHT22;34538;48.836;9.174;2023-11-19T07:58:40;11.60;99.90
48744;DHT22;34538;48.836;9.174;2023-11-19T08:01:07;11.70;99.90
48744;DHT22;34538;48.836;9.174;2023-11-19T08:03:34;11.60;99.90
48744;DHT22;34538;48.836;9.174;2023-11-19T08:06:00;11.70;99.90
48744;DHT22;34538;48.836;9.174;2023-11-19T08:08:27;11.70;99.90
48744;DHT22;34538;48.836;9.174;2023-11-19T08:10:55;11.80;99.90
48744;DHT22;34538;48.836;9.174;2023-11-19T08:13:23;11.80;99.90
48744;DHT22;34538;48.836;9.174;2023-11-19T08:15:50;11.80;99.90
48744;DHT22;34538;48.836;9.174;2023-11-19T08:18:17;11.90;99.90
48744;DHT22;34538;48.836;9.174;2023-11-19T08:20:44;11.90;99.90
48744;DHT22;34538;48.836;9.174;2023-11-19T08:23:12;12.00;99.90
48744;DHT22;34538;48.836;9.174;2023-11-19T08:25:39;12.00;99.90
48744;DHT22;34538;48.836;9.174;2023-11-19T08:28:06;12.10;99.90
48744;DHT22;34538;48.836;9.174;2023-11-19T08:30:34;12.10;99.90
48744;DHT22;34538;48.836;9.174;2023-11-19T08:33:01;12.10;99.90
48744;DHT22;34538;48.836;9.174;2023-11-19T08:35:29;12.20;99.90
48744;DHT22;34538;48.836;9.174;2023-11-19T08:37:56;12.20;99.90
48744;DHT22;34538;48.836;9.174;2023-11-19T08:40:22;12.30;99.90
48744;DHT22;34538;48.836;9.174;2023-11-19T08:42:51;12.30;99.90
48744;DHT22;34538;48.836;9.174;2023-11-19T08:45:18;12.30;99.90
48744;DHT22;34538;48.836;9.174;2023-11-19T08:47:46;12.40;99.90
48744;DHT22;34538;48.836;9.174;2023-11-19T08:50:13;12.50;99.90
48744;DHT22;34538;48.836;9.174;2023-11-19T08:52:39;12.50;99.90
48744;DHT22;34538;48.836;9.174;2023-11-19T08:55:07;12.60;99.90
48744;DHT22;34538;48.836;9.174;2023-11-19T08:57:35;12.70;99.90
48744;DHT22;34538;48.836;9.174;2023-11-19T09:00:02;12.70;99.90
48744;DHT22;34538;48.836;9.174;2023-11-19T09:02:33;12.70;99.90
48744;DHT22;34538;48.836;9.174;2023-11-19T09:05:01;12.70;99.90
48744;DHT22;34538;48.836;9.174;2023-11-19T09:07:28;12.70;99.90
48744;DHT22;34538;48.836;9.174;2023-11-19T09:09:54;12.70;99.90
48744;DHT22;34538;48.836;9.174;2023-11-19T09:12:21;12.70;99.90
48744;DHT22;34538;48.836;9.174;2023-11-19T09:14:48;12.70;99.90
48744;DHT22;34538;48.836;9.174;2023-11-19T09:17:15;12.70;99.90
48744;DHT22;34538;48.836;9.174;2023-11-19T09:19:43;12.80;99.90
48744;DHT22;34538;48.836;9.174;2023-11-19T09:22:11;12.90;99.90
48744;DHT22;34538;48.836;9.174;2023-11-19T09:24:38;12.90;99.90
48744;DHT22;34538;48.836;9.174;2023-11-19T09:27:04;13.00;99.90
48744;DHT22;34538;48.836;9.174;2023-11-19T09:29:31;13.10;99.90
48744;DHT22;34538;48.836;9.174;2023-11-19T09:31:58;13.20;99.90
48744;DHT22;34538;48.836;9.174;2023-11-19T09:34:25;13.20;99.90
48744;DHT22;34538;48.836;9.174;2023-11-19T09:36:51;13.20;99.90
48744;DHT22;34538;48.836;9.174;2023-11-19T09:39:19;13.30;99.90
48744;DHT22;34538;48.836;9.174;2023-11-19T09:41:46;13.30;99.90
48744;DHT22;34538;48.836;9.174;2023-11-19T09:44:15;13.30;99.90
48744;DHT22;34538;48.836;9.174;2023-11-19T09:46:43;13.30;99.90
48744;DHT22;34538;48.836;9.174;2023-11-19T09:49:14;13.30;99.90
48744;DHT22;34538;48.836;9.174;2023-11-19T09:51:46;13.40;99.90
48744;DHT22;34538;48.836;9.174;2023-11-19T09:54:16;13.50;99.90
48744;DHT22;34538;48.836;9.174;2023-11-19T09:56:45;13.50;99.90
48744;DHT22;34538;48.836;9.174;2023-11-19T09:59:13;13.60;99.90
48744;DHT22;34538;48.836;9.174;2023-11-19T10:01:41;13.60;99.90
48744;DHT22;34538;48.836;9.174;2023-11-19T10:04:07;13.70;99.90
48744;DHT22;34538;48.836;9.174;2023-11-19T10:06:41;13.70;99.90
48744;DHT22;34538;48.836;9.174;2023-11-19T10:09:12;13.70;99.90
48744;DHT22;34538;48.836;9.174;2023-11-19T10:15:13;13.80;99.90
48744;DHT22;34538;48.836;9.174;2023-11-19T10:17:49;13.80;99.90
48744;DHT22;34538;48.836;9.174;2023-11-19T10:20:17;13.90;99.90
48744;DHT22;34538;48.836;9.174;2023-11-19T10:22:44;14.00;99.90
48744;DHT22;34538;48.836;9.174;2023-11-19T10:27:54;14.10;99.90
48744;DHT22;34538;48.836;9.174;2023-11-19T10:30:23;14.20;99.90
48744;DHT22;34538;48.836;9.174;2023-11-19T10:33:02;14.30;99.90
48744;DHT22;34538;48.836;9.174;2023-11-19T10:35:29;14.40;99.90
48744;DHT22;34538;48.836;9.174;2023-11-19T10:37:58;14.50;99.90
48744;DHT22;34538;48.836;9.174;2023-11-19T10:40:33;14.60;99.90
48744;DHT22;34538;48.836;9.174;2023-11-19T10:43:04;14.60;99.90
48744;DHT22;34538;48.836;9.174;2023-11-19T10:45:33;14.70;99.90
48744;DHT22;34538;48.836;9.174;2023-11-19T10:48:00;14.70;99.90
48744;DHT22;34538;48.836;9.174;2023-11-19T10:50:30;14.80;99.90
48744;DHT22;34538;48.836;9.174;2023-11-19T10:53:00;14.90;99.90
48744;DHT22;34538;48.836;9.174;2023-11-19T10:55:29;15.00;99.90
48744;DHT22;34538;48.836;9.174;2023-11-19T10:57:59;15.10;99.90
48744;DHT22;34538;48.836;9.174;2023-11-19T11:00:28;15.20;99.90
48744;DHT22;34538;48.836;9.174;2023-11-19T11:02:59;15.20;99.90
48744;DHT22;34538;48.836;9.174;2023-11-19T11:05:27;15.30;99.90
48744;DHT22;34538;48.836;9.174;2023-11-19T11:07:55;15.30;99.90
48744;DHT22;34538;48.836;9.174;2023-11-19T11:10:22;15.30;99.90
48744;DHT22;34538;48.836;9.174;2023-11-19T11:12:52;15.40;99.90
48744;DHT22;34538;48.836;9.174;2023-11-19T11:15:23;15.40;99.90
48744;DHT22;34538;48.836;9.174;2023-11-19T11:17:51;15.40;99.90
48744;DHT22;34538;48.836;9.174;2023-11-19T11:20:20;15.40;99.90
48744;DHT22;34538;48.836;9.174;2023-11-19T11:22:50;15.40;99.90
48744;DHT22;34538;48.836;9.174;2023-11-19T11:25:23;15.40;99.90
48744;DHT22;34538;48.836;9.174;2023-11-19T11:27:58;15.30;99.90
48744;DHT22;34538;48.836;9.174;2023-11-19T11:30:34;15.30;99.90
48744;DHT22;34538;48.836;9.174;2023-11-19T11:33:06;15.20;99.90
48744;DHT22;34538;48.836;9.174;2023-11-19T11:35:44;15.20;99.90
48744;DHT22;34538;48.836;9.174;2023-11-19T11:38:16;15.10;99.90
48744;DHT22;34538;48.836;9.174;2023-11-19T11:43:43;15.00;99.90
48744;DHT22;34538;48.836;9.174;2023-11-19T11:48:53;15.00;99.90
48744;DHT22;34538;48.836;9.174;2023-11-19T11:51:27;15.00;99.90
48744;DHT22;34538;48.836;9.174;2023-11-19T11:54:25;14.90;99.90
48744;DHT22;34538;48.836;9.174;2023-11-19T11:57:00;15.00;99.90
48744;DHT22;34538;48.836;9.174;2023-11-19T11:59:31;14.90;99.90
48744;DHT22;34538;48.836;9.174;2023-11-19T12:01:58;14.90;99.90
48744;DHT22;34538;48.836;9.174;2023-11-19T12:04:28;15.00;99.90
48744;DHT22;34538;48.836;9.174;2023-11-19T12:07:06;15.10;99.90
48744;DHT22;34538;48.836;9.174;2023-11-19T12:09:34;15.10;99.90
48744;DHT22;34538;48.836;9.174;2023-11-19T12:12:11;15.20;99.90
48744;DHT22;34538;48.836;9.174;2023-11-19T12:17:37;15.30;99.90
48744;DHT22;34538;48.836;9.174;2023-11-19T12:20:04;15.40;99.90
48744;DHT22;34538;48.836;9.174;2023-11-19T12:22:36;15.50;99.90
48744;DHT22;34538;48.836;9.174;2023-11-19T12:25:04;15.60;99.90
48744;DHT22;34538;48.836;9.174;2023-11-19T12:27:32;15.70;99.90
48744;DHT22;34538;48.836;9.174;2023-11-19T12:30:00;15.70;99.90
48744;DHT22;34538;48.836;9.174;2023-11-19T12:32:37;15.80;99.90
48744;DHT22;34538;48.836;9.174;2023-11-19T12:35:04;15.80;99.90
48744;DHT22;34538;48.836;9.174;2023-11-19T12:37:32;15.80;99.90
48744;DHT22;34538;48.836;9.174;2023-11-19T12:40:02;15.80;99.90
48744;DHT22;34538;48.836;9.174;2023-11-19T12:42:37;15.80;99.90
48744;DHT22;34538;48.836;9.174;2023-11-19T12:45:05;15.80;99.90
48744;DHT22;34538;48.836;9.174;2023-11-19T12:47:32;15.70;99.90
48744;DHT22;34538;48.836;9.174;2023-11-19T12:49:59;15.70;99.90
48744;DHT22;34538;48.836;9.174;2023-11-19T12:52:26;15.70;99.90
48744;DHT22;34538;48.836;9.174;2023-11-19T12:54:54;15.70;99.90
48744;DHT22;34538;48.836;9.174;2023-11-19T12:57:34;15.70;99.90
48744;DHT22;34538;48.836;9.174;2023-11-19T13:00:02;15.70;99.90
48744;DHT22;34538;48.836;9.174;2023-11-19T13:02:44;15.70;99.90
48744;DHT22;34538;48.836;9.174;2023-11-19T13:05:24;15.80;99.90
48744;DHT22;34538;48.836;9.174;2023-11-19T13:07:57;15.80;99.90
48744;DHT22;34538;48.836;9.174;2023-11-19T13:10:24;15.80;99.90
48744;DHT22;34538;48.836;9.174;2023-11-19T13:13:05;15.80;99.90
48744;DHT22;34538;48.836;9.174;2023-11-19T13:15:37;15.80;99.90
48744;DHT22;34538;48.836;9.174;2023-11-19T13:18:04;15.80;99.90
48744;DHT22;34538;48.836;9.174;2023-11-19T13:20:32;15.80;99.90
48744;DHT22;34538;48.836;9.174;2023-11-19T13:23:00;15.80;99.90
48744;DHT22;34538;48.836;9.174;2023-11-19T13:25:28;15.70;99.90
48744;DHT22;34538;48.836;9.174;2023-11-19T13:27:55;15.70;99.90
48744;DHT22;34538;48.836;9.174;2023-11-19T13:30:24;15.60;99.90
48744;DHT22;34538;48.836;9.174;2023-11-19T13:32:52;15.60;99.90
48744;DHT22;34538;48.836;9.174;2023-11-19T13:35:18;15.50;99.90
48744;DHT22;34538;48.836;9.174;2023-11-19T13:37:45;15.40;99.90
48744;DHT22;34538;48.836;9.174;2023-11-19T13:40:13;15.40;99.90
48744;DHT22;34538;48.836;9.174;2023-11-19T13:42:40;15.30;99.90
48744;DHT22;34538;48.836;9.174;2023-11-19T13:45:09;15.20;99.90
48744;DHT22;34538;48.836;9.174;2023-11-19T13:47:39;15.20;99.90
48744;DHT22;34538;48.836;9.174;2023-11-19T13:50:11;15.20;99.90
48744;DHT22;34538;48.836;9.174;2023-11-19T13:52:39;15.20;99.90
48744;DHT22;34538;48.836;9.174;2023-11-19T13:55:07;15.20;99.90
48744;DHT22;34538;48.836;9.174;2023-11-19T13:57:37;15.20;99.90
48744;DHT22;34538;48.836;9.174;2023-11-19T14:00:05;15.10;99.90
48744;DHT22;34538;48.836;9.174;2023-11-19T14:02:40;15.10;99.90
48744;DHT22;34538;48.836;9.174;2023-11-19T14:05:07;15.10;99.90
48744;DHT22;34538;48.836;9.174;2023-11-19T14:07:34;15.10;99.90
48744;DHT22;34538;48.836;9.174;2023-11-19T14:10:01;15.10;99.90
48744;DHT22;34538;48.836;9.174;2023-11-19T14:12:29;15.10;99.90
48744;DHT22;34538;48.836;9.174;2023-11-19T14:14:57;15.10;99.90
48744;DHT22;34538;48.836;9.174;2023-11-19T14:17:25;15.10;99.90
48744;DHT22;34538;48.836;9.174;2023-11-19T14:19:54;15.00;99.90
48744;DHT22;34538;48.836;9.174;2023-11-19T14:22:21;15.00;99.90
48744;DHT22;34538;48.836;9.174;2023-11-19T14:24:48;15.00;99.90
48744;DHT22;34538;48.836;9.174;2023-11-19T14:27:15;14.90;99.90
48744;DHT22;34538;48.836;9.174;2023-11-19T14:29:43;14.90;99.90
48744;DHT22;34538;48.836;9.174;2023-11-19T14:32:11;14.90;99.90
48744;DHT22;34538;48.836;9.174;2023-11-19T14:34:38;14.90;99.90
48744;DHT22;34538;48.836;9.174;2023-11-19T14:37:09;14.80;99.90
48744;DHT22;34538;48.836;9.174;2023-11-19T14:39:36;14.80;99.90
48744;DHT22;34538;48.836;9.174;2023-11-19T14:42:04;14.80;99.90
48744;DHT22;34538;48.836;9.174;2023-11-19T14:44:31;14.80;99.90
48744;DHT22;34538;48.836;9.174;2023-11-19T14:46:59;14.70;99.90
48744;DHT22;34538;48.836;9.174;2023-11-19T14:49:28;14.70;99.90
48744;DHT22;34538;48.836;9.174;2023-11-19T14:51:55;14.60;99.90
48744;DHT22;34538;48.836;9.174;2023-11-19T14:54:24;14.60;99.90
48744;DHT22;34538;48.836;9.174;2023-11-19T14:56:52;14.50;99.90
48744;DHT22;34538;48.836;9.174;2023-11-19T14:59:19;14.40;99.90
48744;DHT22;34538;48.836;9.174;2023-11-19T15:01:46;14.40;99.90
48744;DHT22;34538;48.836;9.174;2023-11-19T15:04:13;14.30;99.90
48744;DHT22;34538;48.836;9.174;2023-11-19T15:06:40;14.30;99.90
48744;DHT22;34538;48.836;9.174;2023-11-19T15:09:08;14.20;99.90
48744;DHT22;34538;48.836;9.174;2023-11-19T15:11:41;14.20;99.90
48744;DHT22;34538;48.836;9.174;2023-11-19T15:14:08;14.10;99.90
48744;DHT22;34538;48.836;9.174;2023-11-19T15:16:36;14.10;99.90
48744;DHT22;34538;48.836;9.174;2023-11-19T15:19:03;14.10;99.90
48744;DHT22;34538;48.836;9.174;2023-11-19T15:21:30;14.00;99.90
48744;DHT22;34538;48.836;9.174;2023-11-19T15:23:58;14.00;99.90
48744;DHT22;34538;48.836;9.174;2023-11-19T15:26:26;14.00;99.90
48744;DHT22;34538;48.836;9.174;2023-11-19T15:29:13;14.00;99.90
48744;DHT22;34538;48.836;9.174;2023-11-19T15:32:07;14.00;99.90
48744;DHT22;34538;48.836;9.174;2023-11-19T15:34:42;14.00;99.90
48744;DHT22;34538;48.836;9.174;2023-11-19T15:37:19;14.00;99.90
48744;DHT22;34538;48.836;9.174;2023-11-19T15:40:02;14.00;99.90
48744;DHT22;34538;48.836;9.174;2023-11-19T15:42:32;13.90;99.90
48744;DHT22;34538;48.836;9.174;2023-11-19T15:45:06;13.90;99.90
48744;DHT22;34538;48.836;9.174;2023-11-19T15:47:34;13.80;99.90
48744;DHT22;34538;48.836;9.174;2023-11-19T15:50:05;13.80;99.90
48744;DHT22;34538;48.836;9.174;2023-11-19T15:52:39;13.70;99.90
48744;DHT22;34538;48.836;9.174;2023-11-19T15:55:06;13.60;99.90
48744;DHT22;34538;48.836;9.174;2023-11-19T15:57:33;13.50;99.90